createdAt,value
2023-05-09T00:00:31.012Z,100.00
2023-05-09T00:02:57.426Z,100.00
2023-05-09T00:05:23.821Z,100.00
2023-05-09T00:07:50.206Z,100.00
2023-05-09T00:10:16.801Z,100.00
2023-05-09T00:12:43.755Z,100.00
2023-05-09T00:15:10.462Z,100.00
2023-05-09T00:17:38.511Z,100.00
2023-05-09T00:20:09.059Z,100.00
2023-05-09T00:22:35.419Z,100.00
2023-05-09T00:25:01.741Z,100.00
2023-05-09T00:27:30.602Z,100.00
2023-05-09T00:29:57.102Z,100.00
2023-05-09T00:32:23.445Z,100.00
2023-05-09T00:34:50.260Z,100.00
2023-05-09T00:37:18.905Z,100.00
2023-05-09T00:39:45.945Z,100.00
2023-05-09T00:42:12.304Z,100.00
2023-05-09T00:44:38.657Z,100.00
2023-05-09T00:47:05.314Z,100.00
2023-05-09T00:49:32.100Z,100.00
2023-05-09T00:51:58.876Z,100.00
2023-05-09T00:54:25.470Z,100.00
2023-05-09T00:56:51.805Z,100.00
2023-05-09T00:59:18.875Z,100.00
2023-05-09T01:01:46.292Z,100.00
2023-05-09T01:04:14.005Z,100.00
2023-05-09T01:06:57.881Z,100.00
2023-05-09T01:09:32.692Z,100.00
2023-05-09T01:12:22.223Z,100.00
2023-05-09T01:15:02.239Z,100.00
2023-05-09T01:17:36.718Z,100.00
2023-05-09T01:20:14.307Z,100.00
2023-05-09T01:22:45.269Z,100.00
2023-05-09T01:25:24.276Z,100.00
2023-05-09T01:27:50.582Z,100.00
2023-05-09T01:30:17.214Z,100.00
2023-05-09T01:32:46.106Z,100.00
2023-05-09T01:35:14.472Z,100.00
2023-05-09T01:37:42.351Z,100.00
2023-05-09T01:40:16.672Z,100.00
2023-05-09T01:42:45.430Z,100.00
2023-05-09T01:45:13.945Z,100.00
2023-05-09T01:47:41.584Z,100.00
2023-05-09T01:50:09.265Z,100.00
2023-05-09T01:52:36.237Z,100.00
2023-05-09T01:55:02.713Z,100.00
2023-05-09T01:57:30.168Z,100.00
2023-05-09T01:59:57.605Z,100.00
2023-05-09T02:02:26.203Z,100.00
2023-05-09T02:04:55.314Z,100.00
2023-05-09T02:07:22.844Z,100.00
2023-05-09T02:09:49.981Z,100.00
2023-05-09T02:12:16.901Z,100.00
2023-05-09T02:14:43.539Z,100.00
2023-05-09T02:17:11.351Z,100.00
2023-05-09T02:19:37.686Z,100.00
2023-05-09T02:22:05.128Z,100.00
2023-05-09T02:24:32.773Z,100.00
2023-05-09T02:26:59.798Z,100.00
2023-05-09T02:29:28.797Z,100.00
2023-05-09T02:31:55.222Z,100.00
2023-05-09T02:34:21.698Z,100.00
2023-05-09T02:36:48.311Z,100.00
2023-05-09T02:39:14.771Z,100.00
2023-05-09T02:41:47.703Z,100.00
2023-05-09T02:44:14.057Z,100.00
2023-05-09T02:46:40.652Z,100.00
2023-05-09T02:49:06.955Z,100.00
2023-05-09T02:51:33.267Z,100.00
2023-05-09T02:53:59.581Z,100.00
2023-05-09T02:56:25.986Z,100.00
2023-05-09T02:58:52.283Z,100.00
2023-05-09T03:01:18.666Z,100.00
2023-05-09T03:03:46.116Z,100.00
2023-05-09T03:06:12.481Z,100.00
2023-05-09T03:08:38.785Z,100.00
2023-05-09T03:11:05.803Z,100.00
2023-05-09T03:13:32.350Z,100.00
2023-05-09T03:15:58.656Z,100.00
2023-05-09T03:18:25.026Z,100.00
2023-05-09T03:20:51.353Z,100.00
2023-05-09T03:23:17.659Z,100.00
2023-05-09T03:25:43.969Z,100.00
2023-05-09T03:28:10.302Z,100.00
2023-05-09T03:30:36.792Z,100.00
2023-05-09T03:33:04.850Z,100.00
2023-05-09T03:35:31.294Z,100.00
2023-05-09T03:37:57.626Z,100.00
2023-05-09T03:40:23.910Z,100.00
2023-05-09T03:42:50.456Z,100.00
2023-05-09T03:45:16.928Z,100.00
2023-05-09T03:47:43.359Z,100.00
2023-05-09T03:50:10.153Z,100.00
2023-05-09T03:52:37.305Z,100.00
2023-05-09T03:55:03.873Z,100.00
2023-05-09T03:57:30.222Z,100.00
2023-05-09T03:59:56.637Z,100.00
2023-05-09T04:02:23.295Z,100.00
2023-05-09T04:04:49.969Z,100.00
2023-05-09T04:07:16.289Z,100.00
2023-05-09T04:09:42.846Z,100.00
2023-05-09T04:12:09.181Z,100.00
2023-05-09T04:14:35.525Z,100.00
2023-05-09T04:17:01.960Z,100.00
2023-05-09T04:19:28.337Z,100.00
2023-05-09T04:21:54.646Z,100.00
2023-05-09T04:24:20.965Z,100.00
2023-05-09T04:26:47.390Z,100.00
2023-05-09T04:29:14.016Z,100.00
2023-05-09T04:31:40.531Z,100.00
2023-05-09T04:34:08.742Z,100.00
2023-05-09T04:36:35.206Z,100.00
2023-05-09T04:39:01.662Z,100.00
2023-05-09T04:41:28.005Z,100.00
2023-05-09T04:43:54.368Z,100.00
2023-05-09T04:46:21.316Z,100.00
2023-05-09T04:48:49.151Z,100.00
2023-05-09T04:51:15.459Z,100.00
2023-05-09T04:53:41.776Z,100.00
2023-05-09T04:56:08.217Z,100.00
2023-05-09T04:58:38.270Z,100.00
2023-05-09T05:01:05.782Z,100.00
2023-05-09T05:03:32.369Z,100.00
2023-05-09T05:05:58.812Z,100.00
2023-05-09T05:08:25.140Z,100.00
2023-05-09T05:10:51.575Z,100.00
2023-05-09T05:13:17.883Z,100.00
2023-05-09T05:15:44.239Z,100.00
2023-05-09T05:18:10.656Z,100.00
2023-05-09T05:20:36.994Z,100.00
2023-05-09T05:23:03.300Z,100.00
2023-05-09T05:25:29.657Z,100.00
2023-05-09T05:27:55.989Z,100.00
2023-05-09T05:30:22.298Z,100.00
2023-05-09T05:32:48.731Z,100.00
2023-05-09T05:35:15.346Z,100.00
2023-05-09T05:37:42.224Z,100.00
2023-05-09T05:40:08.781Z,100.00
2023-05-09T05:42:35.351Z,100.00
2023-05-09T05:45:04.381Z,100.00
2023-05-09T05:47:34.117Z,100.00
2023-05-09T05:50:01.545Z,100.00
2023-05-09T05:52:28.122Z,100.00
2023-05-09T05:54:54.775Z,100.00
2023-05-09T05:57:21.082Z,100.00
2023-05-09T05:59:48.335Z,100.00
2023-05-09T06:02:15.314Z,100.00
2023-05-09T06:04:42.032Z,100.00
2023-05-09T06:07:08.364Z,100.00
2023-05-09T06:09:34.790Z,100.00
2023-05-09T06:12:01.408Z,100.00
2023-05-09T06:14:27.857Z,100.00
2023-05-09T06:16:54.798Z,100.00
2023-05-09T06:19:21.504Z,100.00
2023-05-09T06:21:47.832Z,100.00
2023-05-09T06:24:23.422Z,100.00
2023-05-09T06:26:58.440Z,100.00
2023-05-09T06:29:24.743Z,100.00
2023-05-09T06:31:51.128Z,100.00
2023-05-09T06:34:17.493Z,100.00
2023-05-09T06:36:43.897Z,100.00
2023-05-09T06:39:10.291Z,100.00
2023-05-09T06:41:36.645Z,100.00
2023-05-09T06:44:03.056Z,100.00
2023-05-09T06:46:29.532Z,100.00
2023-05-09T06:48:55.963Z,100.00
2023-05-09T06:51:22.286Z,100.00
2023-05-09T06:53:48.763Z,100.00
2023-05-09T06:56:15.177Z,100.00
2023-05-09T06:58:41.508Z,100.00
2023-05-09T07:01:07.958Z,100.00
2023-05-09T07:03:34.360Z,100.00
2023-05-09T07:06:00.671Z,100.00
2023-05-09T07:08:27.185Z,100.00
2023-05-09T07:10:53.536Z,100.00
2023-05-09T07:13:20.007Z,100.00
2023-05-09T07:15:46.449Z,100.00
2023-05-09T07:18:12.866Z,100.00
2023-05-09T07:20:39.264Z,100.00
2023-05-09T07:23:05.936Z,100.00
2023-05-09T07:25:32.353Z,100.00
2023-05-09T07:27:58.786Z,100.00
2023-05-09T07:30:25.452Z,100.00
2023-05-09T07:32:52.302Z,100.00
2023-05-09T07:35:19.103Z,100.00
2023-05-09T07:37:45.400Z,100.00
2023-05-09T07:40:12.158Z,100.00
2023-05-09T07:42:38.718Z,100.00
2023-05-09T07:45:06.182Z,100.00
2023-05-09T07:47:33.102Z,100.00
2023-05-09T07:49:59.467Z,100.00
2023-05-09T07:52:25.780Z,100.00
2023-05-09T07:54:52.191Z,100.00
2023-05-09T07:57:18.605Z,100.00
2023-05-09T07:59:44.907Z,100.00
2023-05-09T08:02:11.284Z,100.00
2023-05-09T08:04:38.274Z,100.00
2023-05-09T08:07:04.913Z,100.00
2023-05-09T08:09:31.222Z,100.00
2023-05-09T08:11:57.636Z,100.00
2023-05-09T08:14:24.009Z,100.00
2023-05-09T08:16:50.441Z,100.00
2023-05-09T08:19:16.840Z,100.00
2023-05-09T08:21:43.183Z,100.00
2023-05-09T08:24:09.685Z,100.00
2023-05-09T08:26:36.137Z,100.00
2023-05-09T08:29:02.482Z,100.00
2023-05-09T08:31:29.003Z,100.00
2023-05-09T08:33:55.356Z,100.00
2023-05-09T08:36:21.726Z,100.00
2023-05-09T08:38:48.079Z,100.00
2023-05-09T08:41:14.553Z,100.00
2023-05-09T08:43:41.651Z,100.00
2023-05-09T08:46:09.365Z,100.00
2023-05-09T08:48:38.791Z,100.00
2023-05-09T08:51:06.010Z,100.00
2023-05-09T08:53:33.002Z,100.00
2023-05-09T08:56:00.459Z,100.00
2023-05-09T08:58:27.038Z,100.00
2023-05-09T09:00:55.485Z,100.00
2023-05-09T09:03:23.263Z,100.00
2023-05-09T09:05:51.204Z,100.00
2023-05-09T09:08:17.947Z,100.00
2023-05-09T09:10:47.557Z,100.00
2023-05-09T09:13:15.148Z,100.00
2023-05-09T09:15:43.451Z,100.00
2023-05-09T09:18:11.574Z,100.00
2023-05-09T09:20:41.016Z,100.00
2023-05-09T09:23:10.473Z,100.00
2023-05-09T09:25:37.037Z,100.00
2023-05-09T09:28:04.075Z,100.00
2023-05-09T09:30:30.490Z,100.00
2023-05-09T09:32:58.738Z,100.00
2023-05-09T09:35:25.115Z,100.00
2023-05-09T09:37:57.856Z,100.00
2023-05-09T09:40:25.586Z,100.00
2023-05-09T09:42:52.220Z,100.00
2023-05-09T09:45:19.587Z,100.00
2023-05-09T09:47:46.942Z,100.00
2023-05-09T09:50:14.669Z,100.00
2023-05-09T09:52:51.527Z,100.00
2023-05-09T09:55:18.735Z,100.00
2023-05-09T09:57:46.123Z,100.00
2023-05-09T10:00:13.834Z,100.00
2023-05-09T10:02:47.205Z,100.00
2023-05-09T10:05:18.578Z,100.00
2023-05-09T10:07:45.310Z,100.00
2023-05-09T10:10:11.789Z,100.00
2023-05-09T10:12:39.468Z,99.56
2023-05-09T10:15:09.061Z,98.25
2023-05-09T10:17:35.441Z,95.56
2023-05-09T10:20:02.811Z,93.37
2023-05-09T10:22:29.822Z,94.80
2023-05-09T10:25:01.568Z,92.44
2023-05-09T10:27:28.966Z,90.42
2023-05-09T10:30:07.651Z,86.82
2023-05-09T10:32:36.821Z,89.49
2023-05-09T10:35:05.909Z,82.23
2023-05-09T10:37:33.413Z,81.73
2023-05-09T10:40:01.408Z,80.19
2023-05-09T10:42:28.985Z,77.85
2023-05-09T10:44:56.314Z,78.53
2023-05-09T10:47:23.774Z,80.19
2023-05-09T10:49:50.144Z,76.49
2023-05-09T10:52:16.925Z,75.82
2023-05-09T10:54:43.289Z,70.87
2023-05-09T10:57:09.746Z,68.70
2023-05-09T10:59:40.794Z,65.35
2023-05-09T11:02:14.198Z,58.90
2023-05-09T11:04:41.085Z,55.92
2023-05-09T11:07:24.298Z,52.60
2023-05-09T11:10:07.576Z,52.83
2023-05-09T11:12:33.926Z,48.74
2023-05-09T11:15:07.721Z,49.01
2023-05-09T11:17:37.719Z,48.42
2023-05-09T11:20:08.125Z,46.00
2023-05-09T11:22:42.024Z,45.28
2023-05-09T11:25:11.157Z,45.71
2023-05-09T11:27:37.457Z,45.20
2023-05-09T11:30:06.024Z,44.81
2023-05-09T11:32:32.861Z,46.46
2023-05-09T11:35:15.822Z,46.70
2023-05-09T11:37:55.027Z,43.61
2023-05-09T11:40:22.108Z,43.85
2023-05-09T11:42:50.133Z,47.01
2023-05-09T11:45:17.470Z,45.65
2023-05-09T11:47:45.124Z,44.60
2023-05-09T11:50:12.833Z,46.03
2023-05-09T11:52:40.054Z,44.11
2023-05-09T11:55:13.315Z,40.28
2023-05-09T11:57:40.821Z,41.20
2023-05-09T12:00:09.366Z,41.44
2023-05-09T12:02:36.247Z,40.28
2023-05-09T12:05:32.250Z,40.09
2023-05-09T12:08:02.407Z,38.10
2023-05-09T12:10:28.731Z,38.31
2023-05-09T12:12:58.072Z,39.14
2023-05-09T12:15:24.555Z,39.79
2023-05-09T12:18:04.618Z,41.43
2023-05-09T12:20:52.730Z,38.34
2023-05-09T12:23:19.288Z,35.31
2023-05-09T12:25:56.025Z,38.15
2023-05-09T12:28:26.097Z,38.63
2023-05-09T12:30:53.503Z,38.68
2023-05-09T12:33:20.165Z,40.56
2023-05-09T12:35:47.428Z,38.44
2023-05-09T12:38:14.577Z,38.02
2023-05-09T12:40:41.201Z,38.76
2023-05-09T12:43:07.564Z,38.25
2023-05-09T12:45:33.946Z,37.60
2023-05-09T12:48:02.387Z,38.32
2023-05-09T12:50:34.688Z,38.67
2023-05-09T12:53:03.318Z,37.38
2023-05-09T12:55:31.057Z,37.18
2023-05-09T12:58:01.902Z,36.64
2023-05-09T13:00:28.536Z,37.88
2023-05-09T13:02:55.417Z,36.42
2023-05-09T13:05:22.442Z,35.79
2023-05-09T13:07:51.154Z,35.59
2023-05-09T13:10:24.215Z,35.19
2023-05-09T13:12:51.440Z,36.43
2023-05-09T13:15:22.945Z,34.79
2023-05-09T13:17:50.613Z,34.86
2023-05-09T13:20:17.583Z,36.72
2023-05-09T13:22:44.961Z,36.16
2023-05-09T13:25:11.527Z,34.95
2023-05-09T13:27:38.049Z,33.61
2023-05-09T13:30:07.509Z,34.31
2023-05-09T13:32:34.370Z,35.29
2023-05-09T13:35:00.748Z,34.30
2023-05-09T13:37:28.185Z,33.17
2023-05-09T13:39:54.949Z,33.25
2023-05-09T13:42:21.400Z,32.74
2023-05-09T13:44:47.770Z,31.43
2023-05-09T13:47:14.179Z,31.90
2023-05-09T13:49:40.501Z,32.15
2023-05-09T13:52:06.924Z,32.42
2023-05-09T13:54:35.085Z,31.75
2023-05-09T13:57:04.842Z,32.06
2023-05-09T13:59:31.530Z,32.40
2023-05-09T14:01:59.664Z,31.67
2023-05-09T14:04:27.494Z,32.31
2023-05-09T14:06:54.242Z,32.24
2023-05-09T14:09:22.252Z,31.64
2023-05-09T14:11:51.607Z,32.24
2023-05-09T14:14:21.551Z,32.01
2023-05-09T14:16:48.344Z,31.92
2023-05-09T14:19:15.521Z,31.86
2023-05-09T14:21:51.349Z,32.18
2023-05-09T14:24:17.663Z,31.51
2023-05-09T14:26:44.153Z,32.03
2023-05-09T14:29:10.901Z,31.61
2023-05-09T14:31:37.577Z,31.92
2023-05-09T14:34:05.190Z,31.16
2023-05-09T14:36:32.441Z,31.82
2023-05-09T14:38:58.860Z,32.15
2023-05-09T14:41:25.251Z,32.78
2023-05-09T14:43:52.322Z,33.13
2023-05-09T14:46:18.859Z,32.79
2023-05-09T14:48:45.348Z,33.07
2023-05-09T14:51:11.911Z,33.30
2023-05-09T14:53:41.591Z,31.81
2023-05-09T14:56:08.415Z,32.38
2023-05-09T14:58:34.903Z,32.99
2023-05-09T15:01:04.324Z,34.26
2023-05-09T15:03:30.755Z,35.02
2023-05-09T15:05:58.625Z,34.64
2023-05-09T15:08:25.020Z,36.18
2023-05-09T15:10:51.357Z,36.48
2023-05-09T15:13:17.798Z,37.64
2023-05-09T15:15:44.170Z,38.77
2023-05-09T15:18:10.569Z,37.80
2023-05-09T15:20:37.063Z,35.53
2023-05-09T15:23:04.254Z,35.92
2023-05-09T15:25:30.958Z,36.51
2023-05-09T15:27:57.506Z,37.48
2023-05-09T15:30:23.842Z,37.42
2023-05-09T15:32:50.577Z,39.08
2023-05-09T15:35:18.932Z,39.03
2023-05-09T15:37:45.503Z,38.98
2023-05-09T15:40:11.943Z,40.62
2023-05-09T15:42:38.390Z,40.65
2023-05-09T15:45:04.892Z,41.84
2023-05-09T15:47:31.525Z,42.14
2023-05-09T15:49:58.053Z,42.48
2023-05-09T15:52:24.565Z,43.07
2023-05-09T15:54:51.090Z,42.28
2023-05-09T15:57:18.227Z,41.43
2023-05-09T15:59:44.645Z,40.85
2023-05-09T16:02:12.382Z,41.64
2023-05-09T16:04:38.824Z,43.11
2023-05-09T16:07:05.206Z,42.15
2023-05-09T16:09:32.897Z,42.71
2023-05-09T16:11:59.730Z,43.10
2023-05-09T16:14:26.078Z,44.72
2023-05-09T16:16:53.789Z,46.37
2023-05-09T16:19:20.258Z,47.05
2023-05-09T16:21:46.675Z,44.13
2023-05-09T16:24:13.149Z,44.83
2023-05-09T16:26:39.519Z,45.28
2023-05-09T16:29:05.846Z,46.02
2023-05-09T16:31:34.781Z,44.64
2023-05-09T16:34:02.026Z,44.66
2023-05-09T16:36:29.838Z,43.32
2023-05-09T16:38:56.175Z,42.72
2023-05-09T16:41:22.921Z,41.92
2023-05-09T16:43:49.399Z,41.89
2023-05-09T16:46:16.329Z,42.00
2023-05-09T16:48:42.814Z,41.70
2023-05-09T16:51:10.067Z,40.92
2023-05-09T16:53:45.697Z,41.35
2023-05-09T16:56:12.262Z,42.02
2023-05-09T16:58:38.724Z,42.16
2023-05-09T17:01:05.534Z,44.08
2023-05-09T17:03:31.985Z,42.76
2023-05-09T17:05:58.393Z,43.81
2023-05-09T17:08:24.730Z,43.22
2023-05-09T17:10:51.111Z,43.37
2023-05-09T17:13:17.555Z,43.11
2023-05-09T17:15:44.386Z,43.51
2023-05-09T17:18:12.308Z,44.28
2023-05-09T17:20:40.047Z,45.90
2023-05-09T17:23:06.422Z,46.17
2023-05-09T17:25:33.499Z,44.77
2023-05-09T17:27:59.821Z,46.93
2023-05-09T17:30:26.232Z,47.67
2023-05-09T17:32:52.684Z,47.35
2023-05-09T17:35:20.732Z,48.00
2023-05-09T17:37:47.078Z,48.67
2023-05-09T17:40:13.818Z,49.77
2023-05-09T17:42:40.590Z,50.69
2023-05-09T17:45:10.679Z,49.79
2023-05-09T17:47:37.636Z,51.00
2023-05-09T17:50:04.384Z,51.65
2023-05-09T17:52:30.894Z,53.76
2023-05-09T17:54:57.243Z,53.75
2023-05-09T17:57:23.602Z,55.61
2023-05-09T17:59:51.708Z,54.21
2023-05-09T18:02:23.730Z,55.58
2023-05-09T18:04:51.014Z,56.79
2023-05-09T18:07:17.387Z,56.11
2023-05-09T18:09:43.799Z,56.98
2023-05-09T18:12:10.142Z,57.78
2023-05-09T18:14:36.504Z,60.40
2023-05-09T18:17:02.932Z,58.44
2023-05-09T18:19:29.335Z,60.61
2023-05-09T18:21:55.808Z,61.33
2023-05-09T18:24:23.215Z,61.69
2023-05-09T18:26:49.697Z,62.46
2023-05-09T18:29:17.143Z,64.50
2023-05-09T18:31:43.602Z,68.83
2023-05-09T18:34:09.988Z,69.04
2023-05-09T18:36:36.324Z,65.09
2023-05-09T18:39:02.632Z,65.14
2023-05-09T18:41:33.771Z,65.61
2023-05-09T18:44:00.130Z,65.37
2023-05-09T18:46:28.007Z,68.32
2023-05-09T18:48:54.727Z,71.47
2023-05-09T18:51:21.462Z,71.75
2023-05-09T18:53:47.931Z,73.10
2023-05-09T18:56:14.337Z,75.36
2023-05-09T18:58:40.720Z,76.71
2023-05-09T19:01:11.309Z,76.36
2023-05-09T19:03:43.506Z,77.39
2023-05-09T19:06:10.595Z,81.31
2023-05-09T19:08:37.368Z,81.03
2023-05-09T19:11:03.802Z,81.62
2023-05-09T19:13:33.161Z,82.92
2023-05-09T19:15:59.713Z,84.88
2023-05-09T19:18:26.443Z,91.45
2023-05-09T19:20:52.822Z,91.76
2023-05-09T19:23:20.324Z,89.75
2023-05-09T19:25:46.765Z,89.03
2023-05-09T19:28:14.526Z,93.59
2023-05-09T19:30:40.875Z,91.88
2023-05-09T19:33:07.413Z,92.65
2023-05-09T19:35:33.737Z,94.40
2023-05-09T19:38:00.149Z,97.02
2023-05-09T19:40:26.498Z,93.98
2023-05-09T19:42:52.846Z,97.49
2023-05-09T19:45:19.382Z,92.50
2023-05-09T19:47:45.763Z,95.57
2023-05-09T19:50:12.289Z,93.02
2023-05-09T19:52:38.672Z,95.32
2023-05-09T19:55:06.420Z,93.00
2023-05-09T19:57:33.215Z,96.07
2023-05-09T19:59:59.548Z,95.92
2023-05-09T20:02:26.358Z,99.87
2023-05-09T20:04:54.173Z,96.26
2023-05-09T20:07:20.768Z,96.23
2023-05-09T20:09:47.443Z,98.87
2023-05-09T20:12:14.326Z,100.00
2023-05-09T20:14:40.748Z,99.02
2023-05-09T20:17:09.946Z,97.96
2023-05-09T20:19:36.904Z,100.00
2023-05-09T20:22:03.787Z,100.00
2023-05-09T20:24:33.232Z,99.95
2023-05-09T20:26:59.649Z,98.62
2023-05-09T20:29:26.158Z,100.00
2023-05-09T20:31:52.724Z,100.00
2023-05-09T20:34:20.853Z,99.65
2023-05-09T20:36:50.744Z,98.16
2023-05-09T20:39:17.786Z,99.73
2023-05-09T20:41:47.780Z,99.96
2023-05-09T20:44:14.591Z,100.00
2023-05-09T20:46:40.963Z,99.67
2023-05-09T20:49:07.712Z,100.00
2023-05-09T20:51:34.067Z,100.00
2023-05-09T20:54:00.693Z,100.00
2023-05-09T20:56:28.621Z,100.00
2023-05-09T20:58:55.428Z,100.00
2023-05-09T21:01:22.034Z,100.00
2023-05-09T21:03:48.433Z,100.00
2023-05-09T21:06:14.759Z,100.00
2023-05-09T21:08:41.959Z,100.00
2023-05-09T21:11:08.291Z,100.00
2023-05-09T21:13:34.801Z,100.00
2023-05-09T21:16:01.132Z,100.00
2023-05-09T21:18:27.564Z,100.00
2023-05-09T21:20:53.997Z,100.00
2023-05-09T21:23:20.995Z,100.00
2023-05-09T21:25:47.361Z,100.00
2023-05-09T21:28:15.460Z,100.00
2023-05-09T21:30:41.813Z,100.00
2023-05-09T21:33:08.211Z,100.00
2023-05-09T21:35:34.578Z,100.00
2023-05-09T21:38:00.890Z,100.00
2023-05-09T21:40:27.231Z,100.00
2023-05-09T21:42:53.602Z,100.00
2023-05-09T21:45:19.920Z,100.00
2023-05-09T21:47:46.346Z,100.00
2023-05-09T21:50:12.671Z,100.00
2023-05-09T21:52:39.079Z,100.00
2023-05-09T21:55:05.656Z,100.00
2023-05-09T21:57:31.984Z,100.00
2023-05-09T22:00:01.279Z,100.00
2023-05-09T22:02:31.282Z,100.00
2023-05-09T22:04:57.786Z,100.00
2023-05-09T22:07:24.120Z,100.00
2023-05-09T22:09:50.556Z,100.00
2023-05-09T22:12:17.061Z,100.00
2023-05-09T22:14:53.006Z,100.00
2023-05-09T22:17:22.477Z,100.00
2023-05-09T22:19:48.868Z,100.00
2023-05-09T22:22:15.240Z,100.00
2023-05-09T22:24:41.948Z,100.00
2023-05-09T22:27:08.823Z,100.00
2023-05-09T22:29:35.506Z,100.00
2023-05-09T22:32:02.509Z,100.00
2023-05-09T22:34:28.898Z,100.00
2023-05-09T22:36:55.337Z,100.00
2023-05-09T22:39:21.967Z,100.00
2023-05-09T22:41:48.399Z,100.00
2023-05-09T22:44:14.816Z,100.00
2023-05-09T22:46:41.174Z,100.00
2023-05-09T22:49:07.577Z,100.00
2023-05-09T22:51:33.967Z,100.00
2023-05-09T22:54:00.307Z,100.00
2023-05-09T22:56:27.307Z,100.00
2023-05-09T22:58:53.654Z,100.00
2023-05-09T23:01:20.141Z,100.00
2023-05-09T23:03:46.614Z,100.00
2023-05-09T23:06:12.973Z,100.00
2023-05-09T23:08:39.316Z,100.00
2023-05-09T23:11:05.706Z,100.00
2023-05-09T23:13:32.484Z,100.00
2023-05-09T23:15:58.907Z,100.00
2023-05-09T23:18:25.766Z,100.00
2023-05-09T23:20:52.113Z,100.00
2023-05-09T23:23:28.939Z,100.00
2023-05-09T23:25:55.275Z,100.00
2023-05-09T23:28:24.967Z,100.00
2023-05-09T23:30:51.960Z,100.00
2023-05-09T23:33:18.362Z,100.00
2023-05-09T23:35:44.766Z,100.00
2023-05-09T23:38:11.194Z,100.00
2023-05-09T23:40:38.443Z,100.00
2023-05-09T23:43:04.776Z,100.00
2023-05-09T23:45:31.596Z,100.00
2023-05-09T23:47:57.995Z,100.00
2023-05-09T23:50:24.364Z,100.00
2023-05-09T23:52:51.218Z,100.00
2023-05-09T23:55:17.984Z,100.00
2023-05-09T23:57:44.411Z,100.00
